KLFK/LFK METAR and TAF weather

Enter ICAO airport designator
Station Type Date Time Source
KLFK METAR 2019/08/18 19:53 UTC NOAA

KLFK 181953Z AUTO 20007KT 10SM BKN050 BKN065 34/22 A2990 RMK AO2 SLP118 T03440222


Station Type Date Time Source
KLFK Decoded METAR 2019/08/18 19:53 UTC NOAA

Station name not available
Aug 18, 2019 - 03:53 PM EDT / 2019.08.18 1953 UTC
Wind: from the SSW (200 degrees) at 8 MPH (7 KT):0
Visibility: 10 mile(s):0
Sky conditions: mostly cloudy
Temperature: 93.9 F (34.4 C)
Heat index: 102.0 F (38.9 C):1
Dew Point: 72.0 F (22.2 C)
Relative Humidity: 49%
Pressure (altimeter): 29.9 in. Hg (1012 hPa)
ob: KLFK 181953Z AUTO 20007KT 10SM BKN050 BKN065 34/22 A2990 RMK AO2 SLP118 T03440222
cycle: 20

Station Type Date Time Source
KLFK TAF 2019/08/18 18:36 UTC NOAA

TAF KLFK 181733Z 1818/1918 20007KT P6SM SCT045
FM190100 16006KT P6SM FEW250
FM190600 16003KT P6SM SKC
FM191100 15003KT 6SM BR BKN013
FM191500 20006KT P6SM SCT025

Example: see airport list